x

9063053 - Fairport, Oh (faio1) Weather Station

12:54am - Sat 31st Jan 2015 All times are CST. -6 hours from GMT.

  • Wind
    6mph, 7mph gusts
  • Air Temp 10°f
  • Sea Pressure 1028.4mb
  • 9063053 - Fairport, Oh
  • 9063053 - Fairport, Oh

More Historic Weather Station data

Upgrade to MSW Pro to gain access to the past 30 days of data for over 8000 Wavebouys and Weather Stations around the globe.

Join Pro

Comparision Forecast

View Surf forecast
   
Sat 01/31 12:54am 6 7 mph 1028.4mb 10f
12:48am 6 10 mph 1028.4mb 10f
12:42am 9 10 mph 1028.5mb 10f
12:36am 8 9 mph 1028.5mb 10f
12:30am 8 10 mph 1028.5mb 11f
12:24am 7 8 mph 1028.5mb 11f
12:18am 7 8 mph 1028.5mb 11f
12:12am 7 8 mph 1028.7mb 11f
12:06am 7
mph
1028.7mb 11f
12:00am 7
mph
1028.7mb 11f
Fri 01/30 11:54pm 7 8 mph 1028.8mb 11f
11:48pm 7 8 mph 1028.8mb 11f
11:42pm 8
mph
1028.8mb 11f
11:36pm 7
mph
1028.8mb 11f
11:30pm 6 8 mph 1029mb 11f
11:24pm 7
mph
1029mb 11f
11:18pm 7
mph
1029.1mb 12f
11:12pm 6 7 mph 1029.1mb 12f
11:06pm 5 6 mph 1029.1mb 12f
11:00pm 5 6 mph 1029.2mb 12f
10:54pm 5 6 mph 1029.3mb 11f
10:48pm 5
mph
1029.3mb 12f
10:42pm 3 5 mph 1029.2mb 12f
10:36pm 3 5 mph 1029.2mb 11f
10:30pm 3 5 mph 1029.3mb 12f
10:24pm 5
mph
1029.3mb 11f
10:18pm 3
mph
1029.3mb 11f
10:12pm 3
mph
1029.3mb 11f
10:06pm 2
mph
1029.2mb 11f
10:00pm 1 2 mph 1029.2mb 11f
9:54pm 1 3 mph 1029.1mb 12f
9:48pm 2 3 mph 1029.3mb 12f
9:42pm 1 2 mph 1029.3mb 12f
9:36pm 1 2 mph 1029.3mb 12f
9:30pm 2 3 mph 1029.4mb 12f
9:24pm 3 6 mph 1029.4mb 11f
9:18pm 5 6 mph 1029.4mb -
9:12pm 5 7 mph 1029.4mb -
9:06pm 6 8 mph 1029.4mb -
9:00pm 6 8 mph 1029.5mb 12f
8:54pm 7 9 mph 1029.6mb 12f
8:48pm 8 9 mph 1029.7mb 12f
8:42pm 9
mph
1029.8mb 12f
8:36pm 8 10 mph 1029.7mb 12f
8:30pm 9 10 mph 1029.7mb 12f
8:24pm 9 10 mph 1029.6mb 12f
8:18pm 8 10 mph 1029.6mb 13f
8:12pm 9 10 mph 1029.6mb 13f
8:06pm 9 11 mph 1029.6mb 13f
8:00pm 9 11 mph 1029.6mb 14f
7:54pm 9 13 mph 1029.7mb 14f
7:48pm 10 13 mph 1029.6mb 14f
7:42pm 11 14 mph 1029.7mb 14f
7:36pm 11 15 mph 1029.7mb 14f
7:30pm 13 16 mph 1029.7mb 14f
7:24pm 14 16 mph 1029.7mb 15f
7:18pm 13 15 mph 1029.7mb 15f
7:12pm 13 15 mph 1029.6mb 15f
7:06pm 13 16 mph 1029.7mb 15f
7:00pm 14 16 mph 1029.8mb 15f
6:54pm 15 16 mph 1029.7mb 15f
6:48pm 15 16 mph 1029.6mb 15f
6:42pm 14 17 mph 1029.5mb 15f
6:36pm 14 15 mph 1029.5mb 15f
6:30pm 14 16 mph 1029.5mb 15f
6:24pm 14 16 mph 1029.5mb 15f
6:18pm 14 18 mph 1029.5mb 15f
6:12pm 15 18 mph 1029.5mb 15f
6:06pm 15 18 mph 1029.6mb 15f
6:00pm 14 18 mph 1029.5mb 15f
5:54pm 16 18 mph 1029.4mb 15f
5:48pm 13 16 mph 1029.4mb 15f
5:42pm 14 17 mph 1029.5mb 16f
5:36pm 14 16 mph 1029.5mb 15f
5:30pm 14 17 mph 1029.5mb 16f
5:24pm 15 18 mph 1029.4mb 16f
5:18pm 17 21 mph 1029.4mb 16f
5:12pm 17 21 mph 1029.4mb 16f
5:06pm 17 23 mph 1029.4mb 16f
5:00pm 20 23 mph 1029.3mb 16f
4:54pm 18 22 mph 1029.3mb 16f
4:48pm 16 21 mph 1029.2mb 16f
4:42pm 17 21 mph 1029.2mb 16f
4:36pm 17 20 mph 1029.2mb 16f
4:30pm 18 22 mph 1029.2mb 16f
4:24pm 20 22 mph 1029.2mb 16f
4:18pm 16 20 mph 1029.2mb 17f
4:12pm 14 18 mph 1029.1mb 16f
4:06pm 17 22 mph 1029.1mb 17f
4:00pm 18 22 mph 1029mb 17f
3:54pm 16 18 mph 1029mb 17f
3:48pm 16 22 mph 1028.9mb 17f
3:42pm 17 25 mph 1029mb 17f
3:36pm 20 23 mph 1029mb 17f
3:30pm 20 24 mph 1029mb 17f
3:24pm 21 23 mph 1029mb 17f
3:18pm 22 25 mph 1028.9mb 17f
3:12pm 18 23 mph 1028.9mb 17f
3:06pm 21 24 mph 1028.9mb 17f
3:00pm 20 24 mph 1028.8mb 17f
2:54pm 22 25 mph 1028.8mb 17f
2:48pm 21 26 mph 1028.8mb 17f
2:42pm 23 28 mph 1028.7mb 17f
2:36pm 22 25 mph 1028.6mb 17f
2:30pm 22 25 mph 1028.6mb 17f
2:24pm 21 24 mph 1028.4mb 17f
2:18pm 20 23 mph 1028.4mb 17f
2:12pm 20 24 mph 1028.4mb 17f
2:06pm 22 26 mph 1028.3mb 17f
2:00pm 21 25 mph 1028.2mb 17f
1:54pm 18 25 mph 1028.1mb 17f
1:48pm 22 25 mph 1028.1mb 17f
1:42pm 22 25 mph 1028mb 17f
1:36pm 22 26 mph 1028mb 17f
1:30pm 22 26 mph 1027.8mb 18f
1:24pm 23 28 mph 1027.6mb 18f
1:18pm 22 24 mph 1027.6mb 17f
1:12pm 23 26 mph 1027.5mb 17f
1:06pm 21 25 mph 1027.5mb 17f
1:00pm 22 28 mph 1027.5mb 17f
12:54pm 23 26 mph 1027.6mb 17f
12:48pm 21 25 mph 1027.5mb 17f
12:42pm 23 25 mph 1027.4mb 18f
12:36pm 23 26 mph 1027.4mb 17f
12:30pm 23 26 mph 1027.4mb 17f
12:24pm 24 28 mph 1027.4mb 17f
12:18pm 22 28 mph 1027.4mb 17f
12:12pm 24 29 mph 1027.4mb 17f
12:06pm 21 28 mph 1027.4mb 17f
12:00pm 23 28 mph 1027.4mb 17f
11:54am 23 28 mph 1027.4mb 17f
11:48am 23 28 mph 1027.3mb 17f
11:42am 23 28 mph 1027.3mb 17f
11:36am 24 28 mph 1027.3mb 17f
11:30am 22 28 mph 1027.2mb 17f
11:24am 24 28 mph 1027.1mb 17f
11:18am 22 26 mph 1027.2mb 17f
11:12am 22 30 mph 1027.1mb 17f
11:06am 26 31 mph 1027.2mb 17f
11:00am 24 28 mph 1027.2mb 18f
10:54am 24 28 mph 1027.1mb 18f
10:48am 23 29 mph 1027.1mb 18f
10:42am 23 28 mph 1027mb 18f
10:36am 24 29 mph 1027mb 18f
10:30am 22 26 mph 1026.9mb 18f
10:24am 24 29 mph 1026.8mb 18f
10:18am 22 28 mph 1026.8mb 17f
10:12am 24 28 mph 1026.8mb 18f
10:06am 23 26 mph 1026.7mb 17f
10:00am 23 28 mph 1026.6mb 17f
9:54am 23 31 mph 1026.6mb 17f
9:48am 26 30 mph 1026.5mb 17f
9:42am 26 30 mph 1026.4mb 17f
9:36am 25 30 mph 1026.3mb 17f
9:30am 25 30 mph 1026.2mb 17f
9:24am 26 31 mph 1026.1mb 17f
9:18am 26 32 mph 1026mb 17f
9:12am 22 31 mph 1025.9mb 17f
9:06am 22 29 mph 1025.8mb 17f
9:00am 28 33 mph 1025.6mb 17f
8:54am 30 34 mph 1025.5mb 17f
8:48am 26 33 mph 1025.4mb 17f
8:42am 28 32 mph 1025.4mb 17f
8:36am 21 31 mph 1025.3mb 17f
8:30am 28 33 mph 1025.2mb 17f
8:24am 26 31 mph 1025mb 17f
8:18am 28 31 mph 1024.8mb 17f
8:12am 26 31 mph 1024.7mb 17f
8:06am 28 32 mph 1024.6mb 17f
8:00am 26 34 mph 1024.5mb 17f
7:54am 29 33 mph 1024.4mb 17f
7:48am 26 31 mph 1024.3mb 17f
7:42am 28 33 mph 1024.2mb 18f
7:36am 26 33 mph 1024.1mb 18f
7:30am 28 34 mph 1023.9mb 18f
7:24am 28 33 mph 1023.9mb 18f
7:18am 28 34 mph 1023.8mb 18f
7:12am 23 34 mph 1023.7mb 18f
7:06am 28 33 mph 1023.6mb 18f
7:00am 31 34 mph 1023.5mb 18f
6:54am 28 31 mph 1023.4mb 18f
6:48am 26 33 mph 1023.3mb 18f
6:42am 28 32 mph 1023.2mb 19f
6:36am 28 34 mph 1023.1mb 19f
6:30am 26 33 mph 1022.9mb 19f
6:24am 25 32 mph 1022.8mb 19f
6:18am 28 37 mph 1022.7mb 19f
6:12am 31 36 mph 1022.7mb 19f
6:06am 26 34 mph 1022.5mb 20f
6:00am 29 34 mph 1022.3mb 20f
5:54am 29 36 mph 1022.2mb 20f
5:48am 30 36 mph 1022mb 20f
5:42am 26 31 mph 1021.9mb 20f
5:36am 29 33 mph 1021.7mb 20f
5:30am 23 32 mph 1021.6mb 20f
5:24am 25 31 mph 1021.4mb 20f
5:18am 26 32 mph 1021.3mb 20f
5:12am 24 31 mph 1021.1mb 21f
5:06am 28 34 mph 1021mb 21f
5:00am 24 33 mph 1020.8mb 21f
4:54am 25 32 mph 1020.7mb 21f
4:48am 24 31 mph 1020.6mb 22f
4:42am 26 33 mph 1020.4mb 22f
4:36am 24 32 mph 1020.3mb 22f
4:30am 22 30 mph 1020.2mb 22f
4:24am 24 29 mph 1020.1mb 22f
4:18am 23 29 mph 1019.9mb 22f
4:12am 23 31 mph 1019.8mb 22f
4:06am 25 30 mph 1019.7mb 22f
4:00am 25 31 mph 1019.6mb 22f
3:54am 22 28 mph 1019.4mb 22f
3:48am 24 31 mph 1019.3mb 23f
3:42am 22 30 mph 1019.1mb 23f
3:36am 25 30 mph 1018.9mb 23f
3:30am 28 31 mph 1018.8mb 24f
3:24am 24 31 mph 1018.6mb 24f
3:18am 26 31 mph 1018.4mb 24f
3:12am 20 29 mph 1018.3mb 25f
3:06am 25 29 mph 1018.2mb 25f
3:00am 26 30 mph 1018mb 25f
2:54am 24 29 mph 1017.8mb 25f
2:48am 26 32 mph 1017.8mb 25f
2:42am 25 33 mph 1017.7mb 25f
2:36am 30 36 mph 1017.6mb 25f
2:30am 29 34 mph 1017.5mb 25f
2:24am 29 36 mph 1017.4mb 25f
2:18am 28 37 mph 1017.3mb 25f
2:12am 26 36 mph 1017.2mb 26f
2:06am 32 38 mph 1017.1mb 26f
2:00am 29 36 mph 1017mb 26f
1:54am 31 38 mph 1016.8mb 26f
1:48am 30 37 mph 1016.7mb 27f
1:42am 32 38 mph 1016.5mb 27f
1:36am 26 29 mph 1016.4mb 28f
1:30am 26 32 mph 1016.4mb 28f
1:24am 30 33 mph 1016.3mb 28f
1:18am 31 36 mph 1016.2mb 28f
1:12am 30 36 mph 1016.1mb 29f
1:06am 29 33 mph 1016mb 29f
1:00am 26 32 mph 1015.9mb 29f
12:54am 24 29 mph 1015.8mb 29f
12:48am 22 29 mph 1015.8mb -
12:42am 22 30 mph 1015.7mb -
12:36am 28 30 mph 1015.6mb -
12:30am 26 31 mph 1015.6mb 29f
12:24am 24 29 mph 1015.5mb 29f
12:18am 23 26 mph 1015.5mb 29f
12:12am 24 28 mph 1015.5mb 30f
12:06am 24 28 mph 1015.4mb 30f
12:00am 24 31 mph 1015.3mb 30f
Thu 01/29 11:54pm 28 30 mph 1015.2mb 30f
11:48pm 24 30 mph 1015.1mb 30f
11:42pm 24 29 mph 1015.1mb 30f
11:36pm 24 26 mph 1015mb 30f
11:30pm 24 29 mph 1015mb 30f
11:24pm 24 29 mph 1014.9mb 31f
11:18pm 23 26 mph 1014.9mb 31f
11:12pm 22 25 mph 1014.9mb 31f
11:06pm 21 24 mph 1014.8mb 31f
11:00pm 20 22 mph 1014.8mb 31f
10:54pm 21 23 mph 1014.7mb 31f
10:48pm 20 22 mph 1014.7mb 31f
10:42pm 20 22 mph 1014.7mb 31f
10:36pm 20 23 mph 1014.6mb 31f
10:30pm 20 23 mph 1014.5mb 31f
10:24pm 18 22 mph 1014.4mb 31f
10:18pm 21 24 mph 1014.4mb 31f
10:12pm 21 23 mph 1014.5mb 31f
10:06pm 21 24 mph 1014.4mb 31f
10:00pm 20 24 mph 1014.4mb 31f
9:54pm 20 23 mph 1014.3mb 31f
9:48pm 18 21 mph 1014.2mb 30f
9:42pm 20 22 mph 1014.1mb 30f
9:36pm 20 23 mph 1014mb 30f
9:30pm 18 21 mph 1014mb 30f
9:24pm 16 22 mph 1013.9mb 30f
9:18pm 18 21 mph 1013.8mb 30f
9:12pm 18 21 mph 1013.7mb 30f
9:06pm 18 22 mph 1013.7mb 30f
9:00pm 18 21 mph 1013.6mb 30f
8:54pm 20 22 mph 1013.6mb 30f
8:48pm 20 22 mph 1013.5mb 30f
8:42pm 20 21 mph 1013.5mb 30f
8:36pm 20 23 mph 1013.4mb 30f
8:30pm 20 23 mph 1013.3mb 29f
8:24pm 20 24 mph 1013.2mb 29f
8:18pm 21 24 mph 1013.1mb 29f
8:12pm 22 24 mph 1012.9mb 29f
8:06pm 22 26 mph 1012.9mb 29f
8:00pm 21 28 mph 1012.8mb 29f
7:54pm 24 28 mph 1012.8mb 30f
7:48pm 24 29 mph 1012.6mb 30f
7:42pm 24 26 mph 1012.5mb 30f
7:36pm 22 28 mph 1012.3mb 30f
7:30pm 26 30 mph 1012.2mb 30f
7:24pm 20 23 mph 1012.1mb 30f
7:18pm 21 23 mph 1011.9mb 30f
7:12pm 22 25 mph 1011.8mb 30f
7:06pm 22 24 mph 1011.7mb 30f
7:00pm 21 24 mph 1011.6mb 30f
6:54pm 18 22 mph 1011.4mb 30f
6:48pm 20 23 mph 1011.3mb 30f
6:42pm 21 24 mph 1011.2mb 30f
6:36pm 18 22 mph 1011.1mb 30f
6:30pm 20 24 mph 1010.9mb 30f
6:24pm 22 29 mph 1010.8mb 30f
6:18pm 26 30 mph 1010.6mb 31f
6:12pm 24 30 mph 1010.4mb 31f
6:06pm 28 31 mph 1010.2mb 31f
6:00pm 26 31 mph 1010mb 31f
5:54pm 22 25 mph 1009.8mb 31f
5:48pm 23 26 mph 1009.5mb 31f
5:42pm 22 26 mph 1009.3mb 31f
5:36pm 24 28 mph 1009.2mb 32f
5:30pm 22 25 mph 1008.9mb 32f
5:24pm 20 22 mph 1008.7mb 32f
5:18pm 20 23 mph 1008.6mb 32f
5:12pm 20 23 mph 1008.5mb 32f
5:06pm 20 23 mph 1008.3mb 32f
5:00pm 18 23 mph 1008.1mb 32f
4:54pm 18 26 mph 1008mb 32f
4:48pm 20 23 mph 1007.8mb 32f
4:42pm 21 24 mph 1007.5mb 32f
4:36pm 21 23 mph 1007.4mb 32f
4:30pm 18 22 mph 1007.2mb 33f
4:24pm 17 20 mph 1007.1mb 33f
4:18pm 17 21 mph 1007mb 33f
4:12pm 18 21 mph 1006.8mb 33f
4:06pm 16 21 mph 1006.6mb 34f
4:00pm 13 14 mph 1006.5mb 34f
3:54pm 9 10 mph 1006.4mb 35f
3:48pm 10 11 mph 1006.3mb 35f
3:42pm 11
mph
1006.2mb 36f
3:36pm 10 11 mph 1006.1mb 36f
3:30pm 10 11 mph 1006.1mb 36f
3:24pm 9 11 mph 1006mb 36f
3:18pm 9 11 mph 1006mb 36f
3:12pm 9 11 mph 1005.9mb 36f
3:06pm 8 13 mph 1005.9mb 36f
3:00pm 10 14 mph 1005.8mb 36f
2:54pm 13 17 mph 1005.9mb 36f
2:48pm 13 17 mph 1005.8mb 36f
2:42pm 10 15 mph 1005.8mb 36f
2:36pm 10 15 mph 1005.8mb 36f
2:30pm 13 16 mph 1005.8mb 36f
2:24pm 11 16 mph 1005.7mb 36f
2:18pm 11 16 mph 1005.7mb 36f
2:12pm 13 18 mph 1005.7mb 36f
2:06pm 11 17 mph 1005.6mb 35f
2:00pm 11 16 mph 1005.6mb 35f
1:54pm 15 20 mph 1005.6mb 35f
1:48pm 14 17 mph 1005.7mb 35f
1:42pm 14 21 mph 1005.7mb 35f
1:36pm 15 22 mph 1005.7mb 35f
1:30pm 15 22 mph 1005.7mb 35f
1:24pm 15 22 mph 1005.8mb 35f
1:18pm 17 21 mph 1005.8mb 35f
1:12pm 16 24 mph 1005.8mb 35f
1:06pm 15 22 mph 1005.7mb 35f
1:00pm 16 23 mph 1005.8mb 35f
12:54pm 15 24 mph 1005.7mb 36f
12:48pm 16 22 mph 1005.7mb 36f
12:30pm 21 30 mph 1005.6mb 38f
12:24pm 17 24 mph 1005.7mb 38f
12:18pm 21 26 mph 1005.9mb 38f
12:12pm 20 24 mph 1006mb 38f
12:06pm 17 24 mph 1006.1mb 38f
12:00pm 15 22 mph 1006.4mb 37f
11:54am 18 24 mph 1006.5mb 37f
11:48am 20 25 mph 1006.5mb 37f
11:42am 20 25 mph 1006.6mb 37f
11:36am 20 28 mph 1006.7mb 37f
11:30am 18 28 mph 1006.8mb 36f
11:24am 16 24 mph 1006.9mb 36f
11:18am 20 25 mph 1007.1mb 37f
11:12am 22 28 mph 1007.1mb 37f
11:06am 17 24 mph 1007.2mb 37f
11:00am 21 26 mph 1007.4mb 37f
10:54am 23 30 mph 1007.4mb 37f
10:48am 22 29 mph 1007.6mb 37f
10:42am 18 26 mph 1007.8mb 37f
10:36am 22 30 mph 1007.9mb 37f
10:30am 22 26 mph 1007.9mb 37f
10:24am 20 29 mph 1008mb 38f
10:18am 24 30 mph 1008.1mb 37f
10:12am 22 29 mph 1008.1mb 37f
10:06am 22 28 mph 1008.3mb 37f
10:00am 24 31 mph 1008.5mb 37f
9:54am 25 32 mph 1008.6mb 37f
9:48am 23 31 mph 1008.7mb 36f
9:00am 24 31 mph 1008.7mb 35f
8:54am 29 36 mph 1008.6mb 36f
8:48am 26 36 mph 1008.7mb 35f
8:42am 25 30 mph 1008.4mb 35f
8:36am 25 30 mph 1008.5mb 35f
8:30am 25 31 mph 1008.4mb 34f
8:24am 28 36 mph 1008.5mb 34f
8:18am 31 38 mph 1008.5mb 33f
8:12am 29 36 mph 1008.6mb 33f
8:06am 24 36 mph 1008.9mb 33f
8:00am 28 36 mph 1009.1mb 33f
7:54am 25 34 mph 1009.4mb 33f
7:48am 24 34 mph 1009.6mb 34f
7:42am 25 34 mph 1009.8mb 35f
7:36am 24 31 mph 1009.9mb 35f
7:30am 24 30 mph 1010.2mb 34f
7:24am 22 30 mph 1010.5mb 34f
7:18am 15 24 mph 1010.5mb 33f
7:12am 17 23 mph 1010.6mb 33f
7:06am 16 22 mph 1011mb 33f
7:00am 13 22 mph 1011.3mb 33f
6:54am 11 17 mph 1011.6mb 32f
6:48am 11 17 mph 1011.9mb 32f
6:42am 11 15 mph 1012.1mb 32f
6:36am 10 17 mph 1012.3mb 32f
6:30am 10 15 mph 1012.4mb 32f
6:24am 11 17 mph 1012.6mb 31f
6:18am 13 18 mph 1012.8mb 31f
6:12am 11 15 mph 1013mb 31f
6:06am 10 17 mph 1013.3mb 31f
6:00am  -  mph 1013.6mb 31f
5:54am  -  mph 1013.7mb 31f
5:48am  -  mph 1013.8mb 31f
5:42am  -  mph 1013.9mb 31f
5:36am  -  mph 1014.1mb 31f
5:30am  -  mph 1014.3mb 31f
5:24am  -  mph 1014.5mb 31f
5:18am  -  mph 1014.4mb 31f
5:12am  -  mph 1014.6mb 31f
5:06am  -  mph 1014.6mb 31f
5:00am  -  mph 1014.7mb 30f
4:54am  -  mph 1014.9mb 30f
4:48am  -  mph 1015mb 30f
4:42am  -  mph 1014.9mb 31f
4:36am  -  mph 1015mb 30f
4:30am  -  mph 1015.2mb 30f
4:24am  -  mph 1015.4mb 30f
4:18am  -  mph 1015.3mb 30f
4:12am  -  mph 1015.3mb 30f
4:06am  -  mph 1015.3mb 30f
4:00am  -  mph 1015.5mb 30f
3:54am  -  mph 1015.6mb 29f
3:48am  -  mph 1015.8mb 29f
3:42am  -  mph 1016mb 29f
3:36am  -  mph 1016.3mb 29f
3:30am  -  mph 1016.6mb 29f
3:24am  -  mph 1016.8mb 29f
3:18am  -  mph 1017.1mb 29f
3:12am  -  mph 1017.4mb 28f
3:06am  -  mph 1017.6mb 28f
3:00am  -  mph 1017.8mb 29f
2:54am  -  mph 1017.9mb 28f
2:48am  -  mph 1017.6mb 28f
2:42am  -  mph 1017.8mb 28f
2:36am  -  mph 1018mb 28f
2:30am  -  mph 1018.1mb 28f
2:24am  -  mph 1018.3mb 28f
2:18am  -  mph 1018.4mb 28f
2:12am  -  mph 1018.6mb 28f
2:06am  -  mph 1018.9mb 28f
2:00am  -  mph 1019.2mb 28f
1:54am  -  mph 1019.4mb 28f
1:48am  -  mph 1019.7mb 28f
1:42am  -  mph 1019.8mb 28f
1:36am  -  mph 1019.8mb 28f
1:30am  -  mph 1019.9mb 28f
1:24am  -  mph 1020mb 28f
1:18am  -  mph 1020.1mb 28f
1:12am  -  mph 1020mb 27f
1:06am  -  mph 1019.9mb 27f
1:00am  -  mph 1019.9mb 27f
12:54am  -  mph 1019.9mb 27f
12:48am  -  mph 1019.8mb 27f
12:42am  -  mph 1020mb 28f
12:36am  -  mph 1020.3mb 28f
12:30am  -  mph 1020.3mb 27f
12:24am  -  mph 1020.4mb 27f
12:18am  -  mph 1020.5mb 27f
12:12am  -  mph 1020.5mb 27f
12:06am  -  mph 1020.5mb 27f
12:00am  -  mph 1020.5mb 27f
Wed 01/28 11:54pm  -  mph 1020.4mb 27f
11:48pm  -  mph 1020.3mb 27f
11:42pm  -  mph 1020.3mb 27f
11:36pm  -  mph 1020.2mb 26f
11:30pm  -  mph 1020.5mb 26f
11:24pm  -  mph 1020.7mb 26f
11:18pm  -  mph 1020.9mb 26f
11:12pm  -  mph 1021.1mb 26f
11:06pm  -  mph 1021.3mb 27f
11:00pm  -  mph 1021.4mb 27f
10:54pm  -  mph 1021.6mb 27f
10:48pm  -  mph 1021.8mb 27f
10:42pm  -  mph 1022mb 27f
10:36pm  -  mph 1022.2mb 27f
10:30pm  -  mph 1022.6mb 26f
10:24pm  -  mph 1022.7mb 26f
10:18pm  -  mph 1022.9mb 26f
10:12pm  -  mph 1022.9mb 26f
10:06pm  -  mph 1022.7mb 26f
10:00pm  -  mph 1022.8mb 26f
9:54pm  -  mph 1022.7mb 26f
9:48pm  -  mph 1022.7mb 26f
9:42pm  -  mph 1022.8mb 25f
9:36pm  -  mph 1023mb 25f
9:30pm  -  mph 1023.2mb 25f
9:24pm  -  mph 1023.2mb 25f
9:18pm  -  mph 1023.3mb 25f
9:12pm  -  mph 1023.3mb 24f
9:06pm  -  mph 1023.4mb 24f
9:00pm  -  mph 1023.5mb 23f
8:54pm  -  mph 1023.7mb 22f
8:48pm  -  mph 1023.8mb 22f
8:42pm  -  mph 1023.9mb 22f
8:36pm  -  mph 1024.1mb 22f
8:30pm  -  mph 1024.1mb 22f
8:24pm  -  mph 1024.2mb 21f
8:18pm  -  mph 1024.2mb 20f
8:12pm  -  mph 1024.5mb 20f
8:06pm  -  mph 1024.6mb 20f
8:00pm  -  mph 1024.7mb -
7:54pm  -  mph 1024.7mb -
7:48pm  -  mph 1024.7mb 21f
7:42pm  -  mph 1024.7mb 21f
7:36pm  -  mph 1024.7mb 21f
7:30pm  -  mph 1024.7mb 21f
7:24pm  -  mph 1024.7mb 21f
7:18pm  -  mph 1024.6mb 21f
7:12pm  -  mph 1024.6mb 21f
7:06pm  -  mph 1024.5mb 21f
7:00pm  -  mph 1024.6mb 21f
6:54pm  -  mph 1024.6mb 22f
6:48pm  -  mph 1024.6mb 22f
6:42pm  -  mph 1024.6mb 22f
6:36pm  -  mph 1024.6mb 22f
6:30pm  -  mph 1024.6mb 22f
6:24pm  -  mph 1024.6mb 22f
6:18pm  -  mph 1024.7mb 21f
6:12pm  -  mph 1024.6mb 21f
6:06pm  -  mph 1024.6mb 21f
6:00pm  -  mph 1024.7mb 21f
5:54pm  -  mph 1024.9mb 20f
5:48pm  -  mph 1024.9mb 20f
5:42pm  -  mph 1025.1mb 20f
5:36pm  -  mph 1025.2mb 20f
5:30pm  -  mph 1025.3mb 20f
5:24pm  -  mph 1025.3mb 20f
5:18pm  -  mph 1025.4mb 20f
5:12pm  -  mph 1025.3mb 20f
5:06pm  -  mph 1025.3mb 20f
5:00pm  -  mph 1025.2mb 20f
4:54pm  -  mph 1025.2mb 20f
4:48pm  -  mph 1025.1mb 20f
4:42pm  -  mph 1025.2mb 20f
4:36pm  -  mph 1025.2mb 20f
4:30pm  -  mph 1025.3mb 20f
4:24pm  -  mph 1025.2mb 20f
4:18pm  -  mph 1025.2mb 21f
4:12pm  -  mph 1025.2mb 21f
4:06pm  -  mph 1025.2mb 20f
4:00pm  -  mph 1025.3mb -
3:54pm  -  mph 1025.3mb -
3:48pm  -  mph 1025.3mb 22f
3:42pm  -  mph 1025.4mb 22f
3:36pm  -  mph 1025.3mb 22f
3:30pm  -  mph 1025.4mb 24f
3:24pm  -  mph 1025.4mb 24f
3:18pm  -  mph - 25f
3:12pm  -  mph - 25f
3:06pm  -  mph - 25f
3:00pm  -  mph 1025.6mb 25f
2:54pm  -  mph 1025.6mb 24f
2:48pm  -  mph 1025.6mb 24f
2:42pm  -  mph 1025.6mb 24f
2:36pm  -  mph 1025.6mb 24f
2:30pm  -  mph 1025.7mb 24f
2:24pm  -  mph 1025.6mb 24f
2:18pm  -  mph 1025.7mb 24f
2:12pm  -  mph 1025.7mb 24f
2:06pm  -  mph 1025.7mb 24f
2:00pm  -  mph 1025.6mb 24f
1:54pm  -  mph 1025.7mb 24f
1:48pm  -  mph 1025.7mb 24f
1:42pm  -  mph 1025.8mb 25f
1:36pm  -  mph 1025.7mb 23f
1:30pm  -  mph 1025.7mb 23f
1:24pm  -  mph 1025.8mb 24f
1:18pm  -  mph 1025.8mb 23f
1:12pm  -  mph 1025.8mb 23f
1:06pm  -  mph 1026mb 24f
1:00pm  -  mph 1025.9mb 24f
12:54pm  -  mph 1026mb 24f
12:48pm  -  mph 1026.1mb 23f
12:42pm  -  mph 1026.1mb 24f
12:36pm  -  mph 1026.3mb 23f
12:30pm  -  mph 1026.2mb 22f
12:24pm  -  mph 1026.3mb 22f
12:18pm  -  mph 1026.2mb 22f
12:12pm  -  mph 1026.3mb 22f
12:06pm  -  mph 1026.3mb 22f
12:00pm  -  mph 1026.4mb 23f
11:54am  -  mph 1026.5mb 23f
11:48am  -  mph 1026.6mb 22f
11:42am  -  mph 1026.7mb 23f
11:36am  -  mph 1026.7mb 22f
11:30am  -  mph 1026.8mb 22f
11:24am  -  mph 1026.7mb 22f
11:18am  -  mph 1026.8mb 22f
11:12am  -  mph 1026.7mb 22f
11:06am  -  mph 1026.8mb 22f
11:00am  -  mph 1026.8mb 22f
10:54am  -  mph 1026.8mb 23f
10:48am  -  mph 1026.8mb 22f
10:42am  -  mph 1026.8mb 22f
10:36am  -  mph 1027mb 21f
10:30am  -  mph 1027.3mb 21f
10:24am  -  mph 1027.3mb 22f
10:18am  -  mph 1027.3mb 22f
10:12am  -  mph 1027.3mb 21f
10:06am  -  mph 1027.3mb 20f
10:00am  -  mph - 20f
9:54am  -  mph - 20f
9:48am  -  mph 1027.6mb 19f
9:42am  -  mph 1027.7mb 19f
9:36am  -  mph 1027.9mb 19f
9:30am  -  mph 1027.8mb 20f
9:24am  -  mph 1027.7mb 19f
9:18am  -  mph 1027.5mb 19f
9:12am  -  mph 1027.4mb 19f
9:06am  -  mph 1027.4mb 18f
9:00am  -  mph 1027.4mb 18f
8:54am  -  mph 1027.4mb 18f
8:48am  -  mph 1027.4mb 18f
8:42am  -  mph 1027.4mb 18f
8:36am  -  mph 1027.4mb 17f
8:30am  -  mph 1027.4mb 17f
8:24am  -  mph 1027.3mb 17f
8:18am  -  mph 1027.3mb 16f
8:12am  -  mph 1027.3mb 14f
8:06am  -  mph 1027.2mb 13f
8:00am  -  mph 1027.1mb 11f
7:54am  -  mph 1027mb 10f
7:48am  -  mph 1027mb 10f
7:42am  -  mph 1026.9mb 10f
7:36am  -  mph 1026.9mb 9f
7:30am  -  mph 1026.9mb 9f
7:24am  -  mph 1026.9mb 9f
7:18am  -  mph 1026.8mb 8f
7:12am  -  mph 1026.8mb 8f
7:06am  -  mph 1026.6mb 10f
7:00am  -  mph 1026.5mb 12f
6:54am  -  mph 1026.4mb 11f
6:48am  -  mph 1026.3mb 10f
6:42am  -  mph 1026.2mb 10f
6:36am  -  mph 1026.1mb 10f
6:30am  -  mph 1025.9mb 9f
6:24am  -  mph 1025.8mb 6f
6:18am  -  mph 1025.7mb 6f
6:12am  -  mph 1025.5mb 7f
6:06am  -  mph 1025.4mb 6f
6:00am  -  mph 1025.3mb 6f
5:54am  -  mph 1025.2mb 6f
5:48am  -  mph 1025.1mb 6f
5:42am  -  mph 1025mb 6f
5:36am  -  mph 1024.9mb 6f
5:30am  -  mph 1024.8mb 7f
5:24am  -  mph 1024.6mb 5f
5:18am  -  mph 1024.6mb 6f
5:12am  -  mph 1024.6mb 6f
5:06am  -  mph 1024.5mb 7f
5:00am  -  mph 1024.3mb 6f
4:54am  -  mph 1024.3mb 5f
4:48am  -  mph 1024.2mb -
4:42am  -  mph 1024.3mb -
4:36am  -  mph 1024.2mb -
4:30am  -  mph 1024.2mb 5f
4:24am  -  mph 1024.2mb 7f
4:18am  -  mph 1024.2mb 6f
4:12am  -  mph 1024mb 6f
4:06am  -  mph 1024mb 6f
4:00am  -  mph 1024mb 5f
3:54am  -  mph 1024mb 4f
3:48am  -  mph 1024mb 5f
3:42am  -  mph 1023.8mb 6f
3:36am  -  mph 1023.7mb 6f
3:30am  -  mph 1023.6mb 4f
3:24am  -  mph 1023.5mb 5f
3:18am  -  mph 1023.4mb 7f
3:12am  -  mph 1023.3mb 7f
3:06am  -  mph 1023.2mb 7f
3:00am  -  mph 1023.2mb 6f
2:54am  -  mph 1023.2mb 5f
2:48am  -  mph 1023.1mb 8f
2:42am  -  mph 1023mb 7f
2:36am  -  mph 1023mb 6f
2:30am  -  mph 1023mb 7f
2:24am  -  mph 1022.9mb 7f
2:18am  -  mph 1022.8mb 7f
2:12am  -  mph 1022.7mb 6f
2:06am  -  mph 1022.7mb 6f
2:00am  -  mph 1022.7mb 7f
1:54am  -  mph 1022.7mb 7f
1:48am  -  mph 1022.6mb 7f
1:42am  -  mph 1022.6mb 7f
1:36am  -  mph 1022.5mb 7f
1:30am  -  mph 1022.5mb 7f
1:24am  -  mph 1022.5mb 8f
1:18am  -  mph 1022.5mb 8f
1:12am  -  mph 1022.4mb 9f
1:06am  -  mph 1022.4mb 8f
1:00am  -  mph 1022.3mb 8f
12:54am  -  mph 1022.2mb 9f
12:48am  -  mph 1022mb 8f
12:42am  -  mph 1021.9mb 9f
12:36am  -  mph 1021.7mb 8f
12:30am  -  mph 1021.7mb 8f
12:24am  -  mph 1021.5mb 9f
12:18am  -  mph 1021.4mb 10f
12:12am  -  mph 1021.3mb 11f
12:06am  -  mph 1021.3mb 10f
12:00am  -  mph 1021.2mb 10f
Tue 01/27 11:54pm  -  mph 1021.2mb 10f
11:48pm  -  mph 1021.1mb 11f
11:42pm  -  mph 1021.1mb 11f
11:36pm  -  mph 1021.1mb 12f
11:30pm  -  mph 1021.2mb 12f
11:24pm  -  mph 1021.2mb 12f
11:18pm  -  mph 1021.2mb 12f
11:12pm  -  mph 1021.2mb 12f
11:06pm  -  mph 1021.2mb 12f
11:00pm  -  mph 1021.2mb 12f
10:54pm  -  mph 1021.1mb 12f
10:48pm  -  mph 1021.2mb 12f
10:42pm  -  mph 1021.1mb 12f
10:36pm  -  mph 1021.1mb 12f
10:30pm  -  mph 1021.2mb 13f
10:24pm  -  mph 1021.1mb 14f
10:18pm  -  mph 1021.1mb 14f
10:12pm  -  mph 1021.1mb 14f
10:06pm  -  mph 1021.1mb 14f
10:00pm  -  mph 1021mb 14f
9:54pm  -  mph 1021mb 14f
9:48pm  -  mph 1021mb 15f
9:42pm  -  mph 1020.9mb 15f
9:36pm  -  mph 1020.8mb 15f
9:30pm  -  mph 1020.8mb 15f
9:24pm  -  mph 1020.7mb 16f
9:18pm  -  mph 1020.7mb 17f
9:12pm  -  mph 1020.7mb 16f
9:06pm  -  mph 1020.7mb 16f
9:00pm  -  mph 1020.7mb 16f
8:54pm  -  mph 1020.7mb 16f
8:48pm  -  mph 1020.7mb 15f
8:42pm  -  mph 1020.7mb 14f
8:36pm  -  mph 1020.6mb 14f
8:30pm  -  mph 1020.7mb 15f
8:24pm  -  mph 1020.7mb 14f
8:18pm  -  mph 1020.6mb 14f
8:12pm  -  mph 1020.6mb 14f
8:06pm  -  mph 1020.5mb 15f
8:00pm  -  mph 1020.4mb 14f
7:54pm  -  mph 1020.5mb 14f
7:48pm  -  mph 1020.5mb 14f
7:42pm  -  mph 1020.6mb 15f
7:36pm  -  mph 1020.6mb 14f
7:30pm  -  mph 1020.6mb 15f
7:24pm  -  mph 1020.5mb 16f
7:18pm  -  mph 1020.5mb 15f
7:12pm  -  mph 1020.5mb 16f
7:06pm  -  mph 1020.5mb 15f
7:00pm  -  mph 1020.4mb 15f
6:54pm  -  mph 1020.4mb 15f
6:48pm  -  mph 1020.3mb 15f
6:42pm  -  mph 1020.2mb 15f
6:36pm  -  mph 1020.2mb 15f
6:30pm  -  mph 1020.1mb 15f
6:24pm  -  mph 1020mb 15f
6:18pm  -  mph 1020mb 15f
6:12pm  -  mph 1020mb 15f
6:06pm  -  mph 1020mb 15f
6:00pm  -  mph 1020.1mb 15f
5:54pm  -  mph 1020.1mb 15f
5:48pm  -  mph 1020.1mb 15f
5:42pm  -  mph 1020.1mb 16f
5:36pm  -  mph 1020mb 16f
5:30pm  -  mph 1020mb 16f
5:24pm  -  mph 1020mb 16f
5:18pm  -  mph 1020mb 16f
5:12pm  -  mph 1019.9mb 17f
5:06pm  -  mph 1019.8mb 17f
5:00pm  -  mph 1019.8mb 17f
4:54pm  -  mph 1019.7mb 18f
4:48pm  -  mph 1019.6mb 18f
4:42pm  -  mph 1019.5mb 19f
4:36pm  -  mph 1019.4mb 19f
4:30pm  -  mph 1019.4mb 19f
4:24pm  -  mph 1019.4mb 19f
4:18pm  -  mph 1019.2mb 19f
4:12pm  -  mph 1019.2mb 19f
4:06pm  -  mph 1019.2mb 19f
4:00pm  -  mph 1019.1mb 19f
3:54pm  -  mph 1019mb 19f
3:48pm  -  mph 1019mb 19f
3:42pm  -  mph 1019mb 19f
3:36pm  -  mph 1018.8mb 19f
3:30pm  -  mph 1018.8mb 19f
3:24pm  -  mph 1018.7mb 19f
3:18pm  -  mph 1018.6mb 19f
3:12pm  -  mph 1018.5mb 19f
3:06pm  -  mph 1018.4mb 20f
2:48pm  -  mph 1018.2mb 20f
2:42pm  -  mph 1018.1mb 20f
2:36pm  -  mph 1018mb 19f
2:30pm  -  mph 1017.9mb 19f
2:24pm  -  mph 1017.8mb 19f
2:18pm  -  mph 1017.7mb 20f
2:12pm  -  mph 1017.6mb 19f
2:06pm  -  mph 1017.6mb 20f
2:00pm  -  mph 1017.5mb 20f
1:54pm  -  mph 1017.5mb 20f
1:48pm  -  mph 1017.5mb 20f
1:42pm  -  mph 1017.3mb 20f
1:36pm  -  mph 1017.3mb 20f
1:30pm  -  mph 1017.2mb 20f
1:24pm  -  mph 1017.2mb 20f
1:18pm  -  mph 1017.1mb 20f
1:12pm  -  mph 1017.1mb 20f
1:06pm  -  mph 1017.1mb 19f
1:00pm  -  mph 1017mb 20f
12:54pm  -  mph 1017mb 20f
12:48pm  -  mph 1017mb 20f
12:42pm  -  mph 1016.9mb 20f
12:36pm  -  mph 1016.9mb 20f
12:30pm  -  mph 1016.9mb 20f
12:24pm  -  mph 1016.9mb 20f
12:18pm  -  mph 1016.9mb 20f
12:12pm  -  mph 1016.9mb 20f
12:06pm  -  mph 1017mb 20f
12:00pm  -  mph 1017.1mb 20f
11:54am  -  mph 1017mb 20f
11:48am  -  mph 1017mb 20f
11:42am  -  mph 1016.9mb 20f
11:36am  -  mph 1016.9mb 19f
11:30am  -  mph 1017mb 20f
11:24am  -  mph 1017mb 19f
11:18am  -  mph 1017mb 19f
11:12am  -  mph 1017mb 19f
11:06am  -  mph 1017mb 19f
11:00am  -  mph 1017mb 19f
10:54am  -  mph 1017mb 19f
10:48am  -  mph 1017mb 19f
10:42am  -  mph 1017mb 19f
10:36am  -  mph 1017.1mb 19f
10:30am  -  mph 1017.1mb 19f
10:24am  -  mph 1017.1mb 19f
10:18am  -  mph 1017.1mb 19f
10:12am  -  mph 1017.1mb 19f
10:06am  -  mph 1017.2mb 19f
10:00am  -  mph 1017.2mb 19f
9:54am  -  mph 1017.1mb 19f
9:48am  -  mph 1017mb 18f
9:42am  -  mph 1016.9mb 18f
9:36am  -  mph 1016.9mb 18f
9:30am  -  mph 1016.9mb 18f
9:24am  -  mph 1016.9mb 18f
9:18am  -  mph 1016.8mb 19f
9:12am  -  mph 1016.8mb 18f
9:06am  -  mph 1016.7mb 19f
9:00am  -  mph 1016.6mb 18f
8:54am  -  mph 1016.6mb 18f
8:48am  -  mph 1016.6mb 18f
8:42am  -  mph 1016.5mb 18f
8:36am  -  mph 1016.4mb 18f
8:30am  -  mph 1016.3mb 18f
8:24am  -  mph 1016.3mb 18f
8:18am  -  mph 1016.2mb 18f
8:12am  -  mph 1016.2mb 18f
8:06am  -  mph 1016.1mb 18f
8:00am  -  mph 1016.1mb 18f
7:54am  -  mph 1016mb 18f
7:48am  -  mph 1015.8mb 18f